createdAt,value
2023-01-13T00:00:16.102Z,6.72
2023-01-13T00:03:03.437Z,6.53
2023-01-13T00:05:30.840Z,6.82
2023-01-13T00:07:57.764Z,6.53
2023-01-13T00:10:25.009Z,6.43
2023-01-13T00:12:53.551Z,6.72
2023-01-13T00:15:20.897Z,6.47
2023-01-13T00:17:48.853Z,6.60
2023-01-13T00:20:16.538Z,6.68
2023-01-13T00:22:43.626Z,5.20
2023-01-13T00:25:11.032Z,6.95
2023-01-13T00:27:38.207Z,7.15
2023-01-13T00:30:07.583Z,6.97
2023-01-13T00:32:34.581Z,7.47
2023-01-13T00:35:01.980Z,6.38
2023-01-13T00:37:29.125Z,7.07
2023-01-13T00:39:57.880Z,6.35
2023-01-13T00:42:43.181Z,6.70
2023-01-13T00:45:10.842Z,6.60
2023-01-13T00:47:37.964Z,6.82
2023-01-13T00:50:05.570Z,6.70
2023-01-13T00:52:33.676Z,7.03
2023-01-13T00:55:01.020Z,6.47
2023-01-13T00:57:28.061Z,7.22
2023-01-13T00:59:55.581Z,6.57
2023-01-13T01:02:22.543Z,6.68
2023-01-13T01:04:50.023Z,5.38
2023-01-13T01:07:17.030Z,7.05
2023-01-13T01:09:44.279Z,5.57
2023-01-13T01:12:11.532Z,6.65
2023-01-13T01:14:38.781Z,6.25
2023-01-13T01:17:05.677Z,5.68
2023-01-13T01:19:32.978Z,5.82
2023-01-13T01:21:59.913Z,5.90
2023-01-13T01:24:27.263Z,6.07
2023-01-13T01:26:54.161Z,6.28
2023-01-13T01:29:21.302Z,6.15
2023-01-13T01:31:48.259Z,6.07
2023-01-13T01:34:15.459Z,6.57
2023-01-13T01:36:42.380Z,6.13
2023-01-13T01:39:09.986Z,6.18
2023-01-13T01:41:37.371Z,6.55
2023-01-13T01:44:27.232Z,7.15
2023-01-13T01:46:56.480Z,6.35
2023-01-13T01:49:32.162Z,6.18
2023-01-13T01:52:13.301Z,7.03
2023-01-13T01:55:24.102Z,6.68
2023-01-13T01:57:57.266Z,6.18
2023-01-13T02:00:27.051Z,6.03
2023-01-13T02:02:54.778Z,7.22
2023-01-13T02:05:22.319Z,5.97
2023-01-13T02:07:52.339Z,7.78
2023-01-13T02:10:23.454Z,6.20
2023-01-13T02:12:53.057Z,6.35
2023-01-13T02:15:32.774Z,7.18
2023-01-13T02:18:11.799Z,5.80
2023-01-13T02:20:51.078Z,6.20
2023-01-13T02:24:03.823Z,6.50
2023-01-13T02:26:49.546Z,5.57
2023-01-13T02:30:12.231Z,6.03
2023-01-13T02:32:51.750Z,5.85
2023-01-13T02:35:27.509Z,5.32
2023-01-13T02:37:56.882Z,5.40
2023-01-13T02:40:28.687Z,5.97
2023-01-13T02:43:31.076Z,5.25
2023-01-13T02:46:04.658Z,5.80
2023-01-13T02:48:33.117Z,6.05
2023-01-13T02:51:06.746Z,5.72
2023-01-13T02:53:43.453Z,5.93
2023-01-13T02:56:13.428Z,5.65
2023-01-13T02:58:43.683Z,6.55
2023-01-13T03:01:10.827Z,5.75
2023-01-13T03:03:38.190Z,5.72
2023-01-13T03:06:30.783Z,5.28
2023-01-13T03:09:30.612Z,5.90
2023-01-13T03:12:08.466Z,5.82
2023-01-13T03:14:44.538Z,4.65
2023-01-13T03:17:11.383Z,6.15
2023-01-13T03:19:56.593Z,5.32
2023-01-13T03:22:33.572Z,5.78
2023-01-13T03:25:11.943Z,5.82
2023-01-13T03:27:45.382Z,5.63
2023-01-13T03:30:21.234Z,5.50
2023-01-13T03:32:57.084Z,5.93
2023-01-13T03:35:31.194Z,5.30
2023-01-13T03:38:22.434Z,5.97
2023-01-13T03:40:54.905Z,6.10
2023-01-13T03:43:45.592Z,5.78
2023-01-13T03:46:21.766Z,5.63
2023-01-13T03:48:53.695Z,5.57
2023-01-13T03:51:24.020Z,5.85
2023-01-13T03:53:57.374Z,6.05
2023-01-13T03:56:28.084Z,5.57
2023-01-13T03:58:57.600Z,5.80
2023-01-13T04:01:29.297Z,5.45
2023-01-13T04:04:32.942Z,5.88
2023-01-13T04:07:08.913Z,5.57
2023-01-13T04:09:52.740Z,6.68
2023-01-13T04:12:52.348Z,6.00
2023-01-13T04:15:22.272Z,5.95
2023-01-13T04:17:50.786Z,5.90
2023-01-13T04:20:17.955Z,7.53
2023-01-13T04:22:45.169Z,6.05
2023-01-13T04:25:12.039Z,6.03
2023-01-13T04:27:39.323Z,6.38
2023-01-13T04:30:07.043Z,6.78
2023-01-13T04:32:34.700Z,5.20
2023-01-13T04:35:01.663Z,5.53
2023-01-13T04:37:28.874Z,5.60
2023-01-13T04:39:55.756Z,6.18
2023-01-13T04:42:22.909Z,6.05
2023-01-13T04:44:49.793Z,5.82
2023-01-13T04:47:17.064Z,5.97
2023-01-13T04:49:43.951Z,5.65
2023-01-13T04:52:11.085Z,5.70
2023-01-13T04:54:38.042Z,5.88
2023-01-13T04:57:05.268Z,5.50
2023-01-13T04:59:33.950Z,5.40
2023-01-13T05:02:02.287Z,6.22
2023-01-13T05:04:29.185Z,6.18
2023-01-13T05:06:56.774Z,6.60
2023-01-13T05:09:23.663Z,5.10
2023-01-13T05:12:09.551Z,6.05
2023-01-13T05:14:55.030Z,5.22
2023-01-13T05:17:25.097Z,5.40
2023-01-13T05:19:52.030Z,6.05
2023-01-13T05:22:37.910Z,5.95
2023-01-13T05:25:24.480Z,5.55
2023-01-13T05:27:54.356Z,5.82
2023-01-13T05:30:23.693Z,5.70
2023-01-13T05:32:51.022Z,4.95
2023-01-13T05:35:18.375Z,5.03
2023-01-13T05:37:46.522Z,6.07
2023-01-13T05:40:34.477Z,5.32
2023-01-13T05:43:22.139Z,5.13
2023-01-13T05:46:07.987Z,5.45
2023-01-13T05:48:41.386Z,6.25
2023-01-13T05:51:10.684Z,5.97
2023-01-13T05:53:38.115Z,4.82
2023-01-13T05:56:06.190Z,5.65
2023-01-13T05:58:34.404Z,5.68
2023-01-13T06:01:03.784Z,5.38
2023-01-13T06:03:31.839Z,6.32
2023-01-13T06:06:01.760Z,5.70
2023-01-13T06:08:29.755Z,5.38
2023-01-13T06:10:56.699Z,5.63
2023-01-13T06:13:25.434Z,6.13
2023-01-13T06:15:56.816Z,6.45
2023-01-13T06:20:51.116Z,5.43
2023-01-13T06:23:18.358Z,5.78
2023-01-13T06:26:25.112Z,5.90
2023-01-13T06:28:52.413Z,6.50
2023-01-13T06:31:20.079Z,5.70
2023-01-13T06:33:50.875Z,5.90
2023-01-13T06:36:35.419Z,5.75
2023-01-13T06:39:04.158Z,5.70
2023-01-13T06:41:51.520Z,6.90
2023-01-13T06:44:20.474Z,5.70
2023-01-13T06:46:47.810Z,4.90
2023-01-13T06:49:15.056Z,5.75
2023-01-13T06:51:42.804Z,5.65
2023-01-13T06:54:09.950Z,5.82
2023-01-13T06:56:36.845Z,5.30
2023-01-13T06:59:04.089Z,5.20
2023-01-13T07:01:31.140Z,4.78
2023-01-13T07:03:58.403Z,4.70
2023-01-13T07:06:25.335Z,5.22
2023-01-13T07:08:52.532Z,5.25
2023-01-13T07:11:19.367Z,5.72
2023-01-13T07:14:05.351Z,5.03
2023-01-13T07:16:32.417Z,5.70
2023-01-13T07:18:59.748Z,4.93
2023-01-13T07:21:26.747Z,5.00
2023-01-13T07:23:53.959Z,5.50
2023-01-13T07:26:21.046Z,5.32
2023-01-13T07:28:48.468Z,5.15
2023-01-13T07:31:21.319Z,5.85
2023-01-13T07:33:48.900Z,4.85
2023-01-13T07:36:16.061Z,5.55
2023-01-13T07:38:44.748Z,4.63
2023-01-13T07:41:32.208Z,5.18
2023-01-13T07:44:00.437Z,5.35
2023-01-13T07:46:27.536Z,5.03
2023-01-13T07:48:54.677Z,5.03
2023-01-13T07:51:21.567Z,4.80
2023-01-13T07:53:49.344Z,4.78
2023-01-13T07:56:16.306Z,6.22
2023-01-13T07:58:44.942Z,5.22
2023-01-13T08:01:14.063Z,5.57
2023-01-13T08:03:41.523Z,5.35
2023-01-13T08:06:09.761Z,5.43
2023-01-13T08:08:38.012Z,6.40
2023-01-13T08:11:07.212Z,5.72
2023-01-13T08:13:34.674Z,5.65
2023-01-13T08:16:07.011Z,5.43
2023-01-13T08:18:35.748Z,5.70
2023-01-13T08:21:05.540Z,5.05
2023-01-13T08:23:32.795Z,5.72
2023-01-13T08:26:02.268Z,5.70
2023-01-13T08:28:30.220Z,4.88
2023-01-13T08:31:02.018Z,6.50
2023-01-13T08:33:29.896Z,5.07
2023-01-13T08:35:57.095Z,5.88
2023-01-13T08:38:25.788Z,6.15
2023-01-13T08:40:53.053Z,5.05
2023-01-13T08:43:20.501Z,6.07
2023-01-13T08:45:56.788Z,5.18
2023-01-13T08:48:24.415Z,5.22
2023-01-13T08:50:51.431Z,5.20
2023-01-13T08:53:19.053Z,4.97
2023-01-13T08:55:46.532Z,4.55
2023-01-13T08:58:15.998Z,4.82
2023-01-13T09:00:44.082Z,5.30
2023-01-13T09:03:11.741Z,4.60
2023-01-13T09:05:38.690Z,5.68
2023-01-13T09:08:06.039Z,4.47
2023-01-13T09:10:33.732Z,4.78
2023-01-13T09:13:13.424Z,4.55
2023-01-13T09:15:49.716Z,4.95
2023-01-13T09:18:17.352Z,5.55
2023-01-13T09:20:44.816Z,5.40
2023-01-13T09:23:12.013Z,5.03
2023-01-13T09:25:39.783Z,4.85
2023-01-13T09:28:08.447Z,5.35
2023-01-13T09:30:37.319Z,5.57
2023-01-13T09:33:23.244Z,5.25
2023-01-13T09:35:50.208Z,5.18
2023-01-13T09:38:17.499Z,5.38
2023-01-13T09:40:48.964Z,4.75
2023-01-13T09:43:53.984Z,4.40
2023-01-13T09:46:44.136Z,5.60
2023-01-13T09:49:20.958Z,4.47
2023-01-13T09:52:09.238Z,5.30
2023-01-13T09:54:49.771Z,4.70
2023-01-13T09:57:20.508Z,3.72
2023-01-13T09:59:48.753Z,4.65
2023-01-13T10:02:51.252Z,4.53
2023-01-13T10:05:43.524Z,4.07
2023-01-13T10:10:51.017Z,3.95
2023-01-13T10:13:26.976Z,4.35
2023-01-13T10:16:19.115Z,5.03
2023-01-13T10:22:10.705Z,4.47
2023-01-13T10:24:53.965Z,4.30
2023-01-13T10:27:36.846Z,4.53
2023-01-13T10:30:33.999Z,4.93
2023-01-13T10:33:09.543Z,4.35
2023-01-13T10:35:51.789Z,4.75
2023-01-13T10:38:25.303Z,4.65
2023-01-13T10:40:54.891Z,4.75
2023-01-13T10:43:23.122Z,4.53
2023-01-13T10:46:06.309Z,4.35
2023-01-13T10:48:39.483Z,4.65
2023-01-13T10:51:16.569Z,4.68
2023-01-13T10:54:02.763Z,4.15
2023-01-13T10:56:33.049Z,4.32
2023-01-13T10:59:23.033Z,4.22
2023-01-13T11:02:00.876Z,4.65
2023-01-13T11:04:44.040Z,4.63
2023-01-13T11:07:26.770Z,4.38
2023-01-13T11:10:28.659Z,4.15
2023-01-13T11:13:01.389Z,4.28
2023-01-13T11:15:48.907Z,4.68
2023-01-13T11:18:26.900Z,4.30
2023-01-13T11:20:58.590Z,5.20
2023-01-13T11:23:40.690Z,4.95
2023-01-13T11:26:41.015Z,4.82
2023-01-13T11:29:38.357Z,4.85
2023-01-13T11:32:28.119Z,4.68
2023-01-13T11:35:02.068Z,4.97
2023-01-13T11:37:33.353Z,4.63
2023-01-13T11:40:25.919Z,5.03
2023-01-13T11:43:02.041Z,4.72
2023-01-13T11:45:43.932Z,4.38
2023-01-13T11:48:17.800Z,4.13
2023-01-13T11:50:53.963Z,5.00
2023-01-13T11:53:28.338Z,4.85
2023-01-13T11:56:27.718Z,5.95
2023-01-13T11:59:10.956Z,4.35
2023-01-13T12:01:53.652Z,5.50
2023-01-13T12:04:29.647Z,5.57
2023-01-13T12:07:23.175Z,4.85
2023-01-13T12:10:16.876Z,5.45
2023-01-13T12:12:43.981Z,5.05
2023-01-13T12:15:35.949Z,4.93
2023-01-13T12:18:21.422Z,5.47
2023-01-13T12:21:07.408Z,5.43
2023-01-13T12:23:47.026Z,7.50
2023-01-13T12:26:17.144Z,5.78
2023-01-13T12:28:53.735Z,5.18
2023-01-13T12:31:22.367Z,5.15
2023-01-13T12:34:40.509Z,4.65
2023-01-13T12:37:23.907Z,5.22
2023-01-13T12:40:12.774Z,4.95
2023-01-13T12:43:11.233Z,7.10
2023-01-13T12:45:38.676Z,5.05
2023-01-13T12:48:06.348Z,6.07
2023-01-13T12:50:37.655Z,5.05
2023-01-13T12:53:32.456Z,5.80
2023-01-13T12:56:21.561Z,4.95
2023-01-13T12:58:48.905Z,5.10
2023-01-13T13:01:16.367Z,5.50
2023-01-13T13:04:09.487Z,5.32
2023-01-13T13:06:39.565Z,5.22
2023-01-13T13:09:21.715Z,5.60
2023-01-13T13:11:58.616Z,5.30
2023-01-13T13:14:37.895Z,5.32
2023-01-13T13:17:29.368Z,5.22
2023-01-13T13:19:57.855Z,4.70
2023-01-13T13:22:27.813Z,4.90
2023-01-13T13:24:54.964Z,4.80
2023-01-13T13:27:21.762Z,5.03
2023-01-13T13:30:04.765Z,5.75
2023-01-13T13:32:50.949Z,5.50
2023-01-13T13:35:43.334Z,5.00
2023-01-13T13:38:34.800Z,4.95
2023-01-13T13:41:32.232Z,4.93
2023-01-13T13:44:21.808Z,6.72
2023-01-13T13:46:49.852Z,5.78
2023-01-13T13:49:22.460Z,5.35
2023-01-13T13:52:07.178Z,5.72
2023-01-13T13:54:35.399Z,4.50
2023-01-13T13:57:02.708Z,6.32
2023-01-13T13:59:30.922Z,5.38
2023-01-13T14:02:02.117Z,5.15
2023-01-13T14:04:37.224Z,5.50
2023-01-13T14:07:22.072Z,5.72
2023-01-13T14:09:54.323Z,6.25
2023-01-13T14:12:24.037Z,5.30
2023-01-13T14:14:51.835Z,5.45
2023-01-13T14:17:25.832Z,5.70
2023-01-13T14:20:01.552Z,5.10
2023-01-13T14:22:29.072Z,4.68
2023-01-13T14:24:57.790Z,5.57
2023-01-13T14:27:28.419Z,5.63
2023-01-13T14:29:58.312Z,4.65
2023-01-13T14:32:33.624Z,4.50
2023-01-13T14:35:00.686Z,10.48
2023-01-13T14:37:39.755Z,5.32
2023-01-13T14:40:07.311Z,4.70
2023-01-13T14:42:35.613Z,7.28
2023-01-13T14:45:03.381Z,4.95
2023-01-13T14:47:34.102Z,5.18
2023-01-13T14:50:16.389Z,4.95
2023-01-13T14:52:49.264Z,5.43
2023-01-13T14:55:41.620Z,5.63
2023-01-13T14:58:28.657Z,5.88
2023-01-13T15:01:36.329Z,5.30
2023-01-13T15:04:27.049Z,4.80
2023-01-13T15:06:57.063Z,5.30
2023-01-13T15:09:28.240Z,5.78
2023-01-13T15:11:58.792Z,5.78
2023-01-13T15:14:32.580Z,5.20
2023-01-13T15:16:59.731Z,6.25
2023-01-13T15:19:26.922Z,6.20
2023-01-13T15:21:53.845Z,5.97
2023-01-13T15:24:21.174Z,6.53
2023-01-13T15:26:48.305Z,6.22
2023-01-13T15:29:15.841Z,5.90
2023-01-13T15:31:42.797Z,6.55
2023-01-13T15:34:10.076Z,6.28
2023-01-13T15:36:37.933Z,5.85
2023-01-13T15:39:06.931Z,6.35
2023-01-13T15:41:52.535Z,5.70
2023-01-13T15:44:38.470Z,6.25
2023-01-13T15:47:08.802Z,6.47
2023-01-13T15:49:44.030Z,7.57
2023-01-13T15:52:23.158Z,7.20
2023-01-13T15:54:51.708Z,6.57
2023-01-13T15:57:41.496Z,6.65
2023-01-13T16:00:16.144Z,6.32
2023-01-13T16:02:44.505Z,6.63
2023-01-13T16:05:12.496Z,7.03
2023-01-13T16:07:40.097Z,6.93
2023-01-13T16:10:17.333Z,6.50
2023-01-13T16:12:44.500Z,6.20
2023-01-13T16:15:17.219Z,6.85
2023-01-13T16:17:46.381Z,6.95
2023-01-13T16:20:18.107Z,8.00
2023-01-13T16:22:45.504Z,5.90
2023-01-13T16:25:21.781Z,6.20
2023-01-13T16:27:49.601Z,7.93
2023-01-13T16:30:25.247Z,7.20
2023-01-13T16:32:55.018Z,6.93
2023-01-13T16:35:23.721Z,7.70
2023-01-13T16:37:52.175Z,6.93
2023-01-13T16:40:26.613Z,8.40
2023-01-13T16:42:53.525Z,7.55
2023-01-13T16:45:20.656Z,7.38
2023-01-13T16:47:47.885Z,8.13
2023-01-13T16:50:41.059Z,8.05
2023-01-13T16:53:12.171Z,7.78
2023-01-13T16:55:41.224Z,7.65
2023-01-13T16:58:17.863Z,8.07
2023-01-13T17:00:47.014Z,8.13
2023-01-13T17:03:15.355Z,8.25
2023-01-13T17:05:44.442Z,7.70
2023-01-13T17:08:17.855Z,9.88
2023-01-13T17:10:46.358Z,7.32
2023-01-13T17:13:16.937Z,7.60
2023-01-13T17:15:45.880Z,8.50
2023-01-13T17:18:13.625Z,9.13
2023-01-13T17:20:41.160Z,8.85
2023-01-13T17:23:08.199Z,8.45
2023-01-13T17:25:35.527Z,8.68
2023-01-13T17:28:02.709Z,9.10
2023-01-13T17:30:29.934Z,8.43
2023-01-13T17:32:56.957Z,9.82
2023-01-13T17:35:25.234Z,8.73
2023-01-13T17:37:53.393Z,9.13
2023-01-13T17:40:20.875Z,8.85
2023-01-13T17:42:47.859Z,9.20
2023-01-13T17:45:16.370Z,8.85
2023-01-13T17:47:43.717Z,9.15
2023-01-13T17:50:11.189Z,9.15
2023-01-13T17:52:38.163Z,9.85
2023-01-13T17:55:05.743Z,8.70
2023-01-13T17:57:32.671Z,9.70
2023-01-13T17:59:59.884Z,10.07
2023-01-13T18:02:26.941Z,9.50
2023-01-13T18:04:54.193Z,10.27
2023-01-13T18:07:21.095Z,9.98
2023-01-13T18:09:48.481Z,10.27
2023-01-13T18:12:15.436Z,10.40
2023-01-13T18:14:42.637Z,10.20
2023-01-13T18:17:09.581Z,10.40
2023-01-13T18:19:55.220Z,10.40
2023-01-13T18:22:41.090Z,11.48
2023-01-13T18:25:31.017Z,10.30
2023-01-13T18:28:01.204Z,11.70
2023-01-13T18:30:28.497Z,11.27
2023-01-13T18:32:56.031Z,10.88
2023-01-13T18:35:23.464Z,11.20
2023-01-13T18:37:52.097Z,11.95
2023-01-13T18:40:19.328Z,11.18
2023-01-13T18:42:52.151Z,11.88
2023-01-13T18:45:23.229Z,11.48
2023-01-13T18:47:50.895Z,11.07
2023-01-13T18:50:18.860Z,12.38
2023-01-13T18:52:46.379Z,11.48
2023-01-13T18:55:13.548Z,11.82
2023-01-13T18:57:40.698Z,12.80
2023-01-13T19:00:09.977Z,12.52
2023-01-13T19:02:37.473Z,12.38
2023-01-13T19:05:05.359Z,12.30
2023-01-13T19:07:34.901Z,11.93
2023-01-13T19:10:04.439Z,11.43
2023-01-13T19:12:33.696Z,11.55
2023-01-13T19:15:02.140Z,11.75
2023-01-13T19:17:33.855Z,13.30
2023-01-13T19:20:01.575Z,11.50
2023-01-13T19:22:35.671Z,11.27
2023-01-13T19:25:04.423Z,10.98
2023-01-13T19:27:31.719Z,11.85
2023-01-13T19:30:00.681Z,11.50
2023-01-13T19:32:28.766Z,11.65
2023-01-13T19:34:59.348Z,11.55
2023-01-13T19:37:34.273Z,10.80
2023-01-13T19:40:01.649Z,10.70
2023-01-13T19:42:47.317Z,9.88
2023-01-13T19:45:29.396Z,9.57
2023-01-13T19:47:57.797Z,10.25
2023-01-13T19:50:24.995Z,10.50
2023-01-13T19:52:52.000Z,9.82
2023-01-13T19:55:19.858Z,10.25
2023-01-13T19:57:47.261Z,9.23
2023-01-13T20:00:20.306Z,8.48
2023-01-13T20:02:49.185Z,9.32
2023-01-13T20:05:21.239Z,8.35
2023-01-13T20:07:50.012Z,7.68
2023-01-13T20:10:18.923Z,8.80
2023-01-13T20:12:45.880Z,7.70
2023-01-13T20:15:13.794Z,7.55
2023-01-13T20:17:41.655Z,7.28
2023-01-13T20:20:10.701Z,7.68
2023-01-13T20:22:39.319Z,7.32
2023-01-13T20:25:07.757Z,6.43
2023-01-13T20:27:34.982Z,6.95
2023-01-13T20:30:02.324Z,6.60
2023-01-13T20:32:29.195Z,5.78
2023-01-13T20:34:56.324Z,6.28
2023-01-13T20:37:23.272Z,5.93
2023-01-13T20:39:50.639Z,6.18
2023-01-13T20:42:39.806Z,6.40
2023-01-13T20:45:07.466Z,6.05
2023-01-13T20:47:34.622Z,6.00
2023-01-13T20:50:01.821Z,6.32
2023-01-13T20:52:28.813Z,6.30
2023-01-13T20:54:55.946Z,6.13
2023-01-13T20:57:22.826Z,6.30
2023-01-13T20:59:50.006Z,6.57
2023-01-13T21:02:17.820Z,5.85
2023-01-13T21:04:45.298Z,5.63
2023-01-13T21:07:12.221Z,5.80
2023-01-13T21:09:39.878Z,4.75
2023-01-13T21:12:26.208Z,5.20
2023-01-13T21:15:12.215Z,4.57
2023-01-13T21:17:57.815Z,4.57
2023-01-13T21:20:25.094Z,4.68
2023-01-13T21:22:51.992Z,4.85
2023-01-13T21:25:19.761Z,4.25
2023-01-13T21:27:46.654Z,4.75
2023-01-13T21:30:15.477Z,3.95
2023-01-13T21:32:44.217Z,4.50
2023-01-13T21:35:13.352Z,4.78
2023-01-13T21:37:42.002Z,4.88
2023-01-13T21:40:12.254Z,4.75
2023-01-13T21:42:57.570Z,4.32
2023-01-13T21:45:43.310Z,5.00
2023-01-13T21:48:10.325Z,5.18
2023-01-13T21:50:38.585Z,4.38
2023-01-13T21:53:07.882Z,5.20
2023-01-13T21:55:36.825Z,5.40
2023-01-13T21:58:11.030Z,4.63
2023-01-13T22:00:39.586Z,4.13
2023-01-13T22:03:08.051Z,5.07
2023-01-13T22:05:35.665Z,5.10
2023-01-13T22:08:03.014Z,4.90
2023-01-13T22:10:31.021Z,5.05
2023-01-13T22:13:00.384Z,4.55
2023-01-13T22:15:29.164Z,4.13
2023-01-13T22:17:56.525Z,4.22
2023-01-13T22:20:23.691Z,5.20
2023-01-13T22:22:50.625Z,4.75
2023-01-13T22:25:20.228Z,5.47
2023-01-13T22:27:48.451Z,4.80
2023-01-13T22:30:18.920Z,4.63
2023-01-13T22:32:46.488Z,5.40
2023-01-13T22:35:15.636Z,5.50
2023-01-13T22:37:42.735Z,5.38
2023-01-13T22:40:12.114Z,5.50
2023-01-13T22:42:40.983Z,5.13
2023-01-13T22:45:11.847Z,5.50
2023-01-13T22:47:38.943Z,4.45
2023-01-13T22:50:07.412Z,4.95
2023-01-13T22:52:35.326Z,5.15
2023-01-13T22:55:02.754Z,4.80
2023-01-13T22:57:35.928Z,5.07
2023-01-13T23:00:06.389Z,5.20
2023-01-13T23:02:34.653Z,5.15
2023-01-13T23:05:01.977Z,5.20
2023-01-13T23:07:29.162Z,5.40
2023-01-13T23:09:56.333Z,5.18
2023-01-13T23:12:23.248Z,5.22
2023-01-13T23:14:50.450Z,5.32
2023-01-13T23:17:17.333Z,4.97
2023-01-13T23:19:44.508Z,4.75
2023-01-13T23:22:13.120Z,4.95
2023-01-13T23:24:40.350Z,5.25
2023-01-13T23:27:07.256Z,4.43
2023-01-13T23:29:34.439Z,4.60
2023-01-13T23:32:01.323Z,4.75
2023-01-13T23:34:28.659Z,5.63
2023-01-13T23:36:55.516Z,5.07
2023-01-13T23:39:24.359Z,5.55
2023-01-13T23:41:51.576Z,5.82
2023-01-13T23:44:18.740Z,5.88
2023-01-13T23:46:45.704Z,6.30
2023-01-13T23:49:12.882Z,6.32
2023-01-13T23:51:39.959Z,5.85
2023-01-13T23:54:07.216Z,6.10
2023-01-13T23:56:39.164Z,6.60
2023-01-13T23:59:06.709Z,6.32
